createdAt,value
2018-09-17T00:00:04.870Z,83.15
2018-09-17T00:02:33.314Z,83.09
2018-09-17T00:05:01.867Z,83.54
2018-09-17T00:07:30.424Z,83.65
2018-09-17T00:09:58.906Z,83.95
2018-09-17T00:12:27.671Z,83.07
2018-09-17T00:14:56.186Z,83.63
2018-09-17T00:17:24.711Z,83.73
2018-09-17T00:19:53.350Z,84.42
2018-09-17T00:22:21.881Z,82.89
2018-09-17T00:24:50.362Z,84.48
2018-09-17T00:27:18.884Z,83.79
2018-09-17T00:29:47.398Z,84.70
2018-09-17T00:32:15.856Z,85.11
2018-09-17T00:34:44.387Z,84.79
2018-09-17T00:37:12.966Z,85.12
2018-09-17T00:39:41.471Z,84.40
2018-09-17T00:42:10.107Z,84.08
2018-09-17T00:44:38.614Z,84.29
2018-09-17T00:47:07.027Z,85.07
2018-09-17T00:49:35.623Z,84.85
2018-09-17T00:52:04.056Z,84.98
2018-09-17T00:54:32.534Z,85.18
2018-09-17T00:57:01.067Z,83.62
2018-09-17T00:59:29.480Z,83.48
2018-09-17T01:01:58.019Z,84.31
2018-09-17T01:04:26.530Z,83.48
2018-09-17T01:06:55.702Z,84.46
2018-09-17T01:09:29.395Z,84.88
2018-09-17T01:11:57.963Z,85.58
2018-09-17T01:14:26.478Z,85.34
2018-09-17T01:16:55.058Z,84.35
2018-09-17T01:19:23.521Z,84.01
2018-09-17T01:21:52.388Z,85.35
2018-09-17T01:24:21.259Z,84.45
2018-09-17T01:26:49.678Z,84.66
2018-09-17T01:29:18.142Z,85.25
2018-09-17T01:31:46.573Z,85.01
2018-09-17T01:34:15.095Z,84.99
2018-09-17T01:36:43.554Z,85.49
2018-09-17T01:39:12.939Z,85.64
2018-09-17T01:41:41.484Z,85.00
2018-09-17T01:44:09.975Z,84.78
2018-09-17T01:46:38.849Z,84.54
2018-09-17T01:49:07.375Z,84.55
2018-09-17T01:51:35.847Z,84.67
2018-09-17T01:54:04.367Z,85.05
2018-09-17T01:56:32.853Z,85.64
2018-09-17T01:59:01.263Z,86.23
2018-09-17T02:01:30.193Z,85.09
2018-09-17T02:03:58.747Z,85.83
2018-09-17T02:06:27.239Z,86.14
2018-09-17T02:08:56.065Z,86.48
2018-09-17T02:11:24.522Z,86.33
2018-09-17T02:13:53.198Z,85.63
2018-09-17T02:16:21.771Z,87.48
2018-09-17T02:18:50.254Z,86.68
2018-09-17T02:21:18.847Z,85.83
2018-09-17T02:23:47.314Z,87.86
2018-09-17T02:26:15.707Z,87.57
2018-09-17T02:28:44.202Z,86.95
2018-09-17T02:31:12.853Z,87.33
2018-09-17T02:33:41.271Z,87.46
2018-09-17T02:36:09.785Z,87.30
2018-09-17T02:38:38.243Z,87.68
2018-09-17T02:41:06.782Z,87.71
2018-09-17T02:43:35.274Z,88.42
2018-09-17T02:46:03.915Z,87.19
2018-09-17T02:48:32.458Z,88.15
2018-09-17T02:51:00.911Z,86.98
2018-09-17T02:53:29.502Z,86.73
2018-09-17T02:55:57.915Z,88.30
2018-09-17T02:58:26.306Z,87.84
2018-09-17T03:00:54.763Z,87.97
2018-09-17T03:03:23.242Z,87.75
2018-09-17T03:05:53.995Z,87.85
2018-09-17T03:08:22.407Z,87.27
2018-09-17T03:10:50.866Z,87.36
2018-09-17T03:13:19.377Z,87.42
2018-09-17T03:15:55.934Z,87.99
2018-09-17T03:18:36.982Z,87.53
2018-09-17T03:21:06.547Z,87.97
2018-09-17T03:23:36.359Z,87.25
2018-09-17T03:26:05.307Z,87.06
2018-09-17T03:28:34.079Z,87.51
2018-09-17T03:31:02.591Z,87.61
2018-09-17T03:33:31.034Z,87.46
2018-09-17T03:35:59.522Z,87.45
2018-09-17T03:38:38.408Z,87.38
2018-09-17T03:41:07.994Z,86.94
2018-09-17T03:43:37.730Z,87.67
2018-09-17T03:46:06.398Z,87.79
2018-09-17T03:48:35.775Z,87.70
2018-09-17T03:51:05.202Z,87.29
2018-09-17T03:53:34.038Z,87.45
2018-09-17T03:56:02.515Z,87.50
2018-09-17T03:58:31.218Z,87.65
2018-09-17T04:01:00.471Z,87.73
2018-09-17T04:03:28.862Z,88.58
2018-09-17T04:05:57.386Z,89.25
2018-09-17T04:08:25.907Z,89.10
2018-09-17T04:10:54.323Z,88.25
2018-09-17T04:13:22.839Z,87.81
2018-09-17T04:15:51.598Z,87.40
2018-09-17T04:18:20.108Z,86.55
2018-09-17T04:20:48.759Z,86.41
2018-09-17T04:23:24.314Z,87.40
2018-09-17T04:25:53.049Z,87.35
2018-09-17T04:28:21.557Z,87.77
2018-09-17T04:30:50.046Z,88.17
2018-09-17T04:33:18.690Z,87.75
2018-09-17T04:35:47.159Z,87.62
2018-09-17T04:38:15.590Z,87.31
2018-09-17T04:40:44.030Z,88.41
2018-09-17T04:43:12.539Z,89.49
2018-09-17T04:45:41.044Z,87.99
2018-09-17T04:48:09.654Z,87.07
2018-09-17T04:50:38.083Z,86.85
2018-09-17T04:53:06.509Z,88.45
2018-09-17T04:55:35.151Z,87.74
2018-09-17T04:58:03.691Z,88.26
2018-09-17T05:00:32.162Z,87.77
2018-09-17T05:03:00.939Z,88.72
2018-09-17T05:05:29.494Z,88.72
2018-09-17T05:07:58.214Z,89.19
2018-09-17T05:10:26.715Z,89.42
2018-09-17T05:12:55.165Z,88.63
2018-09-17T05:15:23.674Z,88.89
2018-09-17T05:17:52.306Z,88.36
2018-09-17T05:20:20.774Z,89.25
2018-09-17T05:22:49.386Z,89.98
2018-09-17T05:25:17.927Z,90.24
2018-09-17T05:27:46.404Z,89.10
2018-09-17T05:30:14.910Z,88.40
2018-09-17T05:32:43.587Z,87.56
2018-09-17T05:35:12.174Z,88.06
2018-09-17T05:37:40.645Z,88.09
2018-09-17T05:40:09.178Z,87.93
2018-09-17T05:42:37.583Z,87.70
2018-09-17T05:45:06.403Z,90.57
2018-09-17T05:47:35.187Z,91.37
2018-09-17T05:50:03.611Z,89.05
2018-09-17T05:52:32.078Z,88.61
2018-09-17T05:55:00.842Z,88.17
2018-09-17T05:57:29.300Z,87.76
2018-09-17T05:59:57.778Z,88.12
2018-09-17T06:02:26.302Z,87.29
2018-09-17T06:04:54.862Z,86.14
2018-09-17T06:07:23.278Z,86.03
2018-09-17T06:09:52.112Z,86.63
2018-09-17T06:12:20.667Z,86.31
2018-09-17T06:14:49.171Z,86.45
2018-09-17T06:17:17.776Z,85.60
2018-09-17T06:19:46.266Z,86.04
2018-09-17T06:22:14.718Z,84.63
2018-09-17T06:24:43.287Z,85.22
2018-09-17T06:27:11.745Z,84.13
2018-09-17T06:29:40.179Z,84.45
2018-09-17T06:32:08.867Z,83.78
2018-09-17T06:34:37.296Z,82.71
2018-09-17T06:37:05.808Z,83.16
2018-09-17T06:39:34.553Z,82.88
2018-09-17T06:42:02.978Z,83.61
2018-09-17T06:44:31.398Z,84.02
2018-09-17T06:46:59.930Z,84.26
2018-09-17T06:49:28.353Z,83.45
2018-09-17T06:51:56.831Z,83.38
2018-09-17T06:54:25.499Z,83.41
2018-09-17T06:56:53.919Z,83.77
2018-09-17T06:59:22.356Z,83.53
2018-09-17T07:01:51.250Z,82.02
2018-09-17T07:04:19.699Z,81.73
2018-09-17T07:06:48.251Z,81.78
2018-09-17T07:09:17.399Z,82.05
2018-09-17T07:11:45.930Z,80.66
2018-09-17T07:14:14.429Z,79.66
2018-09-17T07:16:43.210Z,78.67
2018-09-17T07:19:11.719Z,79.45
2018-09-17T07:21:40.154Z,79.21
2018-09-17T07:24:08.674Z,79.83
2018-09-17T07:26:37.150Z,79.89
2018-09-17T07:29:05.813Z,79.33
2018-09-17T07:31:34.270Z,80.88
2018-09-17T07:34:02.858Z,79.40
2018-09-17T07:36:31.422Z,77.44
2018-09-17T07:38:59.950Z,76.53
2018-09-17T07:41:28.462Z,75.42
2018-09-17T07:43:56.955Z,76.56
2018-09-17T07:46:25.499Z,76.11
2018-09-17T07:48:53.921Z,76.31
2018-09-17T07:51:22.326Z,74.72
2018-09-17T07:53:51.314Z,73.35
2018-09-17T07:56:19.879Z,73.71
2018-09-17T07:58:48.348Z,73.01
2018-09-17T08:01:16.903Z,73.48
2018-09-17T08:03:45.326Z,72.56
2018-09-17T08:06:13.959Z,72.95
2018-09-17T08:08:42.690Z,72.23
2018-09-17T08:11:11.148Z,71.78
2018-09-17T08:13:39.612Z,70.95
2018-09-17T08:16:08.278Z,70.67
2018-09-17T08:18:36.863Z,69.75
2018-09-17T08:21:05.327Z,69.81
2018-09-17T08:23:33.966Z,69.78
2018-09-17T08:26:02.495Z,68.62
2018-09-17T08:28:30.998Z,68.71
2018-09-17T08:30:59.484Z,67.31
2018-09-17T08:33:28.079Z,68.43
2018-09-17T08:35:56.683Z,67.59
2018-09-17T08:38:25.737Z,66.14
2018-09-17T08:40:54.676Z,67.08
2018-09-17T08:43:23.118Z,66.09
2018-09-17T08:45:51.561Z,65.46
2018-09-17T08:48:20.067Z,65.20
2018-09-17T08:50:48.520Z,65.08
2018-09-17T08:53:17.149Z,63.35
2018-09-17T08:55:46.759Z,62.43
2018-09-17T08:58:20.685Z,61.87
2018-09-17T09:00:54.438Z,62.64
2018-09-17T09:03:26.980Z,61.88
2018-09-17T09:06:00.657Z,61.64
2018-09-17T09:08:29.147Z,61.37
2018-09-17T09:11:02.910Z,60.83
2018-09-17T09:13:34.434Z,60.56
2018-09-17T09:16:02.935Z,61.22
2018-09-17T09:18:31.406Z,59.99
2018-09-17T09:20:59.891Z,60.05
2018-09-17T09:23:28.363Z,59.04
2018-09-17T09:25:56.870Z,59.02
2018-09-17T09:28:25.760Z,59.64
2018-09-17T09:30:54.258Z,59.28
2018-09-17T09:33:22.675Z,59.00
2018-09-17T09:35:51.164Z,58.55
2018-09-17T09:38:19.675Z,57.90
2018-09-17T09:40:48.101Z,56.92
2018-09-17T09:43:16.658Z,56.63
2018-09-17T09:45:45.218Z,56.35
2018-09-17T09:48:13.699Z,56.57
2018-09-17T09:50:42.161Z,57.43
2018-09-17T09:53:10.619Z,56.48
2018-09-17T09:55:39.083Z,55.32
2018-09-17T09:58:07.865Z,54.67
2018-09-17T10:01:39.311Z,55.72
2018-09-17T10:04:13.322Z,55.54
2018-09-17T10:06:41.815Z,55.18
2018-09-17T10:09:15.907Z,54.55
2018-09-17T10:11:49.707Z,54.51
2018-09-17T10:14:23.734Z,54.61
2018-09-17T10:16:57.399Z,54.60
2018-09-17T10:19:26.281Z,54.81
2018-09-17T10:21:54.651Z,52.59
2018-09-17T10:24:23.234Z,52.25
2018-09-17T10:26:51.849Z,52.78
2018-09-17T10:29:20.409Z,52.55
2018-09-17T10:31:48.875Z,51.20
2018-09-17T10:34:17.402Z,51.38
2018-09-17T10:36:45.875Z,51.27
2018-09-17T10:39:14.771Z,50.73
2018-09-17T10:41:43.270Z,51.22
2018-09-17T10:44:11.730Z,50.15
2018-09-17T10:46:40.203Z,50.21
2018-09-17T10:49:09.074Z,51.11
2018-09-17T10:51:37.530Z,50.34
2018-09-17T10:54:06.006Z,49.82
2018-09-17T10:56:34.562Z,48.76
2018-09-17T10:59:03.118Z,49.70
2018-09-17T11:01:31.590Z,49.38
2018-09-17T11:04:00.147Z,49.20
2018-09-17T11:06:28.634Z,48.57
2018-09-17T11:08:57.083Z,48.60
2018-09-17T11:11:25.547Z,49.26
2018-09-17T11:13:54.119Z,48.34
2018-09-17T11:16:22.552Z,48.77
2018-09-17T11:18:51.355Z,48.44
2018-09-17T11:21:19.879Z,47.66
2018-09-17T11:23:48.355Z,46.89
2018-09-17T11:26:17.108Z,47.24
2018-09-17T11:28:45.926Z,46.81
2018-09-17T11:31:14.601Z,46.11
2018-09-17T11:33:43.087Z,45.48
2018-09-17T11:36:11.606Z,45.93
2018-09-17T11:38:40.143Z,45.40
2018-09-17T11:41:08.638Z,45.84
2018-09-17T11:43:37.084Z,44.70
2018-09-17T11:46:05.734Z,44.26
2018-09-17T11:48:34.243Z,44.26
2018-09-17T11:51:03.171Z,44.02
2018-09-17T11:53:31.973Z,43.97
2018-09-17T11:56:00.598Z,43.61
2018-09-17T11:58:29.026Z,43.36
2018-09-17T12:01:02.899Z,44.29
2018-09-17T12:03:36.564Z,42.97
2018-09-17T12:06:05.954Z,42.95
2018-09-17T12:08:34.570Z,43.57
2018-09-17T12:11:03.046Z,43.47
2018-09-17T12:13:31.517Z,42.69
2018-09-17T12:16:00.868Z,42.68
2018-09-17T12:18:29.274Z,43.35
2018-09-17T12:20:57.807Z,43.07
2018-09-17T12:23:26.227Z,43.14
2018-09-17T12:25:54.598Z,41.96
2018-09-17T12:28:23.223Z,40.64
2018-09-17T12:30:51.733Z,41.40
2018-09-17T12:33:20.159Z,41.08
2018-09-17T12:35:48.626Z,41.76
2018-09-17T12:38:17.095Z,41.71
2018-09-17T12:40:45.590Z,40.70
2018-09-17T12:43:14.259Z,40.97
2018-09-17T12:45:42.862Z,41.51
2018-09-17T12:48:11.374Z,40.42
2018-09-17T12:50:40.147Z,40.58
2018-09-17T12:53:08.682Z,40.73
2018-09-17T12:55:37.163Z,41.12
2018-09-17T12:58:06.141Z,40.15
2018-09-17T13:00:34.550Z,41.41
2018-09-17T13:03:03.043Z,40.60
2018-09-17T13:05:31.610Z,39.81
2018-09-17T13:08:00.054Z,39.39
2018-09-17T13:10:28.654Z,39.25
2018-09-17T13:12:57.328Z,38.96
2018-09-17T13:15:25.887Z,38.28
2018-09-17T13:17:54.314Z,39.24
2018-09-17T13:20:22.890Z,39.51
2018-09-17T13:22:51.346Z,39.37
2018-09-17T13:25:19.918Z,38.96
2018-09-17T13:27:48.691Z,38.92
2018-09-17T13:30:17.196Z,39.31
2018-09-17T13:32:45.735Z,39.45
2018-09-17T13:35:14.207Z,38.82
2018-09-17T13:37:42.683Z,38.50
2018-09-17T13:40:11.103Z,38.86
2018-09-17T13:42:39.683Z,39.60
2018-09-17T13:45:08.093Z,39.85
2018-09-17T13:47:36.909Z,37.13
2018-09-17T13:50:06.296Z,37.18
2018-09-17T13:52:37.077Z,38.25
2018-09-17T13:55:06.114Z,37.58
2018-09-17T13:57:34.521Z,38.14
2018-09-17T14:00:02.973Z,37.82
2018-09-17T14:02:31.410Z,39.23
2018-09-17T14:05:06.560Z,38.40
2018-09-17T14:07:40.087Z,38.44
2018-09-17T14:10:11.612Z,39.08
2018-09-17T14:12:40.951Z,38.05
2018-09-17T14:15:09.539Z,38.21
2018-09-17T14:17:38.174Z,38.43
2018-09-17T14:20:06.851Z,37.54
2018-09-17T14:22:35.291Z,38.05
2018-09-17T14:25:03.807Z,37.61
2018-09-17T14:27:32.347Z,37.78
2018-09-17T14:30:00.843Z,37.06
2018-09-17T14:32:34.675Z,37.09
2018-09-17T14:35:03.155Z,38.05
2018-09-17T14:37:32.209Z,37.67
2018-09-17T14:40:00.638Z,36.61
2018-09-17T14:42:29.054Z,36.33
2018-09-17T14:44:57.474Z,37.58
2018-09-17T14:47:26.039Z,37.64
2018-09-17T14:49:54.486Z,37.76
2018-09-17T14:52:22.999Z,36.87
2018-09-17T14:54:51.625Z,37.25
2018-09-17T14:57:20.156Z,37.57
2018-09-17T14:59:48.735Z,37.18
2018-09-17T15:02:17.326Z,36.33
2018-09-17T15:04:45.783Z,36.65
2018-09-17T15:07:14.235Z,36.66
2018-09-17T15:09:42.690Z,37.08
2018-09-17T15:12:11.195Z,36.26
2018-09-17T15:14:39.735Z,37.52
2018-09-17T15:17:08.532Z,37.36
2018-09-17T15:19:37.003Z,37.77
2018-09-17T15:22:05.536Z,37.65
2018-09-17T15:24:34.050Z,37.03
2018-09-17T15:27:02.514Z,37.31
2018-09-17T15:29:30.928Z,37.22
2018-09-17T15:31:59.439Z,36.94
2018-09-17T15:34:28.817Z,37.38
2018-09-17T15:36:57.482Z,37.93
2018-09-17T15:39:26.359Z,38.27
2018-09-17T15:41:55.022Z,38.03
2018-09-17T15:44:23.498Z,38.16
2018-09-17T15:46:52.375Z,37.88
2018-09-17T15:49:20.691Z,38.52
2018-09-17T15:51:49.223Z,38.32
2018-09-17T15:54:18.291Z,39.02
2018-09-17T15:56:47.019Z,38.81
2018-09-17T15:59:15.510Z,39.97
2018-09-17T16:01:44.139Z,39.59
2018-09-17T16:04:12.671Z,39.33
2018-09-17T16:06:41.055Z,39.51
2018-09-17T16:09:09.829Z,39.55
2018-09-17T16:11:38.399Z,39.54
2018-09-17T16:14:07.092Z,40.61
2018-09-17T16:16:35.711Z,39.89
2018-09-17T16:19:04.220Z,40.24
2018-09-17T16:21:32.974Z,40.51
2018-09-17T16:24:01.520Z,41.11
2018-09-17T16:26:29.978Z,40.44
2018-09-17T16:28:58.668Z,40.94
2018-09-17T16:31:27.310Z,41.51
2018-09-17T16:33:55.737Z,41.18
2018-09-17T16:36:24.243Z,42.28
2018-09-17T16:38:52.763Z,42.06
2018-09-17T16:41:21.291Z,42.48
2018-09-17T16:43:49.846Z,42.74
2018-09-17T16:46:18.725Z,43.03
2018-09-17T16:48:47.523Z,43.66
2018-09-17T16:51:15.964Z,42.41
2018-09-17T16:53:44.749Z,43.33
2018-09-17T16:56:13.146Z,43.76
2018-09-17T16:58:41.612Z,43.49
2018-09-17T17:01:10.275Z,45.18
2018-09-17T17:03:38.710Z,45.75
2018-09-17T17:06:07.184Z,45.35
2018-09-17T17:08:35.663Z,45.76
2018-09-17T17:11:04.217Z,46.81
2018-09-17T17:13:32.711Z,46.54
2018-09-17T17:16:01.331Z,47.88
2018-09-17T17:18:29.815Z,47.86
2018-09-17T17:20:58.348Z,49.62
2018-09-17T17:23:26.988Z,51.22
2018-09-17T17:25:55.535Z,51.84
2018-09-17T17:28:24.156Z,52.18
2018-09-17T17:30:53.249Z,52.28
2018-09-17T17:33:21.897Z,53.59
2018-09-17T17:35:50.358Z,53.43
2018-09-17T17:38:19.111Z,53.21
2018-09-17T17:40:47.895Z,53.72
2018-09-17T17:43:16.363Z,54.28
2018-09-17T17:45:45.014Z,54.25
2018-09-17T17:48:13.518Z,54.51
2018-09-17T17:50:42.027Z,54.50
2018-09-17T17:53:10.573Z,54.37
2018-09-17T17:55:39.032Z,54.74
2018-09-17T17:58:07.590Z,54.33
2018-09-17T18:00:36.094Z,54.09
2018-09-17T18:03:04.588Z,54.09
2018-09-17T18:05:33.233Z,53.95
2018-09-17T18:08:02.014Z,53.40
2018-09-17T18:10:30.602Z,54.11
2018-09-17T18:12:59.148Z,54.77
2018-09-17T18:15:27.968Z,54.41
2018-09-17T18:17:56.840Z,53.60
2018-09-17T18:20:25.417Z,53.43
2018-09-17T18:22:54.450Z,53.59
2018-09-17T18:25:23.504Z,54.04
2018-09-17T18:27:52.487Z,54.94
2018-09-17T18:30:21.208Z,54.24
2018-09-17T18:32:49.988Z,56.03
2018-09-17T18:35:18.538Z,55.95
2018-09-17T18:37:47.031Z,56.96
2018-09-17T18:40:15.548Z,56.43
2018-09-17T18:42:44.546Z,56.76
2018-09-17T18:45:13.561Z,58.03
2018-09-17T18:47:43.139Z,58.46
2018-09-17T18:50:12.072Z,58.41
2018-09-17T18:52:40.936Z,58.51
2018-09-17T18:55:10.608Z,58.27
2018-09-17T18:57:39.471Z,58.81
2018-09-17T19:00:09.532Z,58.65
2018-09-17T19:02:39.187Z,58.60
2018-09-17T19:05:08.294Z,59.88
2018-09-17T19:07:37.353Z,59.44
2018-09-17T19:10:06.638Z,59.95
2018-09-17T19:12:35.792Z,60.67
2018-09-17T19:15:09.861Z,60.37
2018-09-17T19:17:40.245Z,60.04
2018-09-17T19:20:10.523Z,59.33
2018-09-17T19:22:46.400Z,60.36
2018-09-17T19:25:17.911Z,60.55
2018-09-17T19:27:51.950Z,60.99
2018-09-17T19:30:21.171Z,61.64
2018-09-17T19:32:50.204Z,62.07
2018-09-17T19:35:19.260Z,61.77
2018-09-17T19:38:50.974Z,62.58
2018-09-17T19:41:20.184Z,62.95
2018-09-17T19:43:49.177Z,63.56
2018-09-17T19:46:19.612Z,63.58
2018-09-17T19:48:49.225Z,65.17
2018-09-17T19:51:23.684Z,65.59
2018-09-17T19:53:52.809Z,65.45
2018-09-17T19:56:21.834Z,65.80
2018-09-17T19:58:56.715Z,66.40
2018-09-17T20:01:27.251Z,66.22
2018-09-17T20:03:59.304Z,66.50
2018-09-17T20:06:28.608Z,67.07
2018-09-17T20:08:58.340Z,67.56
2018-09-17T20:11:27.595Z,67.26
2018-09-17T20:13:57.288Z,67.60
2018-09-17T20:16:26.205Z,68.54
2018-09-17T20:18:55.236Z,68.21
2018-09-17T20:21:23.995Z,67.73
2018-09-17T20:23:52.623Z,67.63
2018-09-17T20:26:21.227Z,69.07
2018-09-17T20:28:49.757Z,68.81
2018-09-17T20:31:18.333Z,68.95
2018-09-17T20:33:47.027Z,69.83
2018-09-17T20:36:15.512Z,69.64
2018-09-17T20:38:44.165Z,69.70
2018-09-17T20:41:12.599Z,69.92
2018-09-17T20:43:41.150Z,69.75
2018-09-17T20:46:09.655Z,70.45
2018-09-17T20:48:38.157Z,71.27
2018-09-17T20:51:07.578Z,71.06
2018-09-17T20:53:36.110Z,71.54
2018-09-17T20:56:04.839Z,71.58
2018-09-17T20:58:33.348Z,72.27
2018-09-17T21:01:01.831Z,72.70
2018-09-17T21:03:30.339Z,72.39
2018-09-17T21:05:58.815Z,73.63
2018-09-17T21:08:27.247Z,73.79
2018-09-17T21:10:55.692Z,73.87
2018-09-17T21:13:24.181Z,73.27
2018-09-17T21:15:52.598Z,73.53
2018-09-17T21:18:21.190Z,73.87
2018-09-17T21:20:49.635Z,73.01
2018-09-17T21:23:18.095Z,73.95
2018-09-17T21:25:47.280Z,73.59
2018-09-17T21:28:15.843Z,73.46
2018-09-17T21:30:44.394Z,73.99
2018-09-17T21:33:12.814Z,73.62
2018-09-17T21:35:41.333Z,75.31
2018-09-17T21:38:09.811Z,75.47
2018-09-17T21:40:38.450Z,75.25
2018-09-17T21:43:06.944Z,75.82
2018-09-17T21:45:35.411Z,74.76
2018-09-17T21:48:03.823Z,75.71
2018-09-17T21:50:32.298Z,76.52
2018-09-17T21:53:00.793Z,76.79
2018-09-17T21:55:29.607Z,76.31
2018-09-17T21:57:58.131Z,76.02
2018-09-17T22:00:30.602Z,76.75
2018-09-17T22:02:59.058Z,76.35
2018-09-17T22:05:27.559Z,77.04
2018-09-17T22:07:55.983Z,77.90
2018-09-17T22:10:24.397Z,78.29
2018-09-17T22:12:52.813Z,76.94
2018-09-17T22:15:21.727Z,77.52
2018-09-17T22:17:50.149Z,77.14
2018-09-17T22:20:18.636Z,78.89
2018-09-17T22:22:47.283Z,78.72
2018-09-17T22:25:15.810Z,79.53
2018-09-17T22:27:44.431Z,79.72
2018-09-17T22:30:13.195Z,79.58
2018-09-17T22:32:41.709Z,80.84
2018-09-17T22:35:10.176Z,79.16
2018-09-17T22:37:38.566Z,79.49
2018-09-17T22:40:07.323Z,79.02
2018-09-17T22:42:36.468Z,79.92
2018-09-17T22:45:05.006Z,79.90
2018-09-17T22:47:33.471Z,79.60
2018-09-17T22:50:01.887Z,78.80
2018-09-17T22:52:30.398Z,79.52
2018-09-17T22:54:58.855Z,78.73
2018-09-17T22:57:27.356Z,79.46
2018-09-17T22:59:56.018Z,79.62
2018-09-17T23:02:24.563Z,79.57
2018-09-17T23:04:53.190Z,79.15
2018-09-17T23:07:21.815Z,79.12
2018-09-17T23:09:50.214Z,78.92
2018-09-17T23:12:18.726Z,78.01
2018-09-17T23:14:47.318Z,79.03
2018-09-17T23:17:15.812Z,80.53
2018-09-17T23:19:44.435Z,80.60
2018-09-17T23:22:13.201Z,81.99
2018-09-17T23:24:41.722Z,81.90
2018-09-17T23:27:10.238Z,81.00
2018-09-17T23:29:38.742Z,80.62
2018-09-17T23:32:07.591Z,80.74
2018-09-17T23:34:36.007Z,80.75
2018-09-17T23:37:04.674Z,82.12
2018-09-17T23:39:33.379Z,82.83
2018-09-17T23:42:01.799Z,82.52
2018-09-17T23:44:30.575Z,81.93
2018-09-17T23:46:59.151Z,83.09
2018-09-17T23:49:27.559Z,81.84
2018-09-17T23:51:56.135Z,82.49
2018-09-17T23:54:24.542Z,82.61
2018-09-17T23:56:53.058Z,82.22
2018-09-17T23:59:21.582Z,83.08
